createdAt,value
2018-04-19T00:00:04.627Z,99.99
2018-04-19T00:01:04.618Z,99.99
2018-04-19T00:02:04.863Z,99.99
2018-04-19T00:03:04.851Z,99.99
2018-04-19T00:04:04.577Z,99.99
2018-04-19T00:05:04.836Z,99.99
2018-04-19T00:06:04.817Z,99.99
2018-04-19T00:07:04.805Z,99.99
2018-04-19T00:08:04.528Z,99.99
2018-04-19T00:09:04.778Z,99.99
2018-04-19T00:10:04.764Z,99.99
2018-04-19T00:11:04.765Z,99.99
2018-04-19T00:12:04.478Z,99.99
2018-04-19T00:13:04.466Z,99.99
2018-04-19T00:14:04.716Z,99.99
2018-04-19T00:15:04.705Z,99.99
2018-04-19T00:16:04.690Z,99.99
2018-04-19T00:17:04.413Z,99.99
2018-04-19T00:18:04.666Z,99.99
2018-04-19T00:19:04.657Z,99.99
2018-04-19T00:20:04.639Z,99.99
2018-04-19T00:21:04.367Z,99.99
2018-04-19T00:22:04.348Z,99.99
2018-04-19T00:23:04.338Z,99.99
2018-04-19T00:24:04.604Z,99.99
2018-04-19T00:25:04.580Z,99.99
2018-04-19T00:26:04.298Z,99.99
2018-04-19T00:27:04.290Z,99.99
2018-04-19T00:28:04.277Z,99.99
2018-04-19T00:29:04.533Z,99.99
2018-04-19T00:30:04.523Z,99.99
2018-04-19T00:31:04.236Z,99.99
2018-04-19T00:32:04.223Z,99.99
2018-04-19T00:33:04.481Z,99.99
2018-04-19T00:34:04.195Z,99.99
2018-04-19T00:35:04.462Z,99.99
2018-04-19T00:36:04.174Z,99.99
2018-04-19T00:37:04.161Z,99.99
2018-04-19T00:38:04.151Z,99.99
2018-04-19T00:39:04.411Z,99.99
2018-04-19T00:40:04.124Z,99.99
2018-04-19T00:41:04.394Z,99.99
2018-04-19T00:42:04.098Z,99.99
2018-04-19T00:43:04.352Z,99.99
2018-04-19T00:44:04.349Z,99.99
2018-04-19T00:45:04.321Z,99.99
2018-04-19T00:46:04.047Z,99.99
2018-04-19T00:47:04.307Z,99.99
2018-04-19T00:48:04.031Z,99.99
2018-04-19T00:49:04.006Z,99.99
2018-04-19T00:50:04.276Z,99.99
2018-04-19T00:51:04.257Z,99.99
2018-04-19T00:52:03.972Z,99.99
2018-04-19T00:53:03.956Z,99.99
2018-04-19T00:54:04.210Z,99.99
2018-04-19T00:55:03.933Z,99.99
2018-04-19T00:56:04.184Z,99.99
2018-04-19T00:57:04.171Z,99.99
2018-04-19T00:58:04.157Z,99.99
2018-04-19T00:59:03.885Z,99.99
2018-04-19T01:00:03.870Z,99.99
2018-04-19T01:01:03.854Z,99.99
2018-04-19T01:02:03.839Z,99.99
2018-04-19T01:03:03.830Z,99.99
2018-04-19T01:04:03.814Z,99.99
2018-04-19T01:05:03.803Z,99.99
2018-04-19T01:06:04.058Z,99.99
2018-04-19T01:07:03.790Z,99.99
2018-04-19T01:08:03.766Z,99.99
2018-04-19T01:09:03.754Z,99.99
2018-04-19T01:10:04.004Z,99.99
2018-04-19T01:11:03.728Z,99.99
2018-04-19T01:12:03.710Z,99.99
2018-04-19T01:13:03.966Z,99.99
2018-04-19T01:14:03.962Z,99.99
2018-04-19T01:15:03.678Z,99.99
2018-04-19T01:16:03.939Z,99.99
2018-04-19T01:17:03.911Z,99.99
2018-04-19T01:18:03.902Z,99.99
2018-04-19T01:19:03.637Z,99.99
2018-04-19T01:20:03.882Z,99.99
2018-04-19T01:21:03.860Z,99.99
2018-04-19T01:22:03.852Z,99.99
2018-04-19T01:23:03.838Z,99.99
2018-04-19T01:24:03.828Z,99.99
2018-04-19T01:25:03.812Z,99.99
2018-04-19T01:26:03.801Z,99.99
2018-04-19T01:27:03.519Z,99.99
2018-04-19T01:28:03.770Z,99.99
2018-04-19T01:29:03.498Z,99.99
2018-04-19T01:30:03.490Z,99.99
2018-04-19T01:31:03.736Z,99.99
2018-04-19T01:32:03.717Z,99.99
2018-04-19T01:33:03.438Z,99.99
2018-04-19T01:34:03.425Z,99.99
2018-04-19T01:35:03.736Z,99.99
2018-04-19T01:36:03.400Z,99.99
2018-04-19T01:37:03.652Z,99.99
2018-04-19T01:38:03.375Z,99.99
2018-04-19T01:39:03.626Z,99.99
2018-04-19T01:40:03.628Z,99.99
2018-04-19T01:41:03.609Z,99.99
2018-04-19T01:42:03.595Z,99.99
2018-04-19T01:43:03.575Z,99.99
2018-04-19T01:44:03.576Z,99.99
2018-04-19T01:45:03.277Z,99.99
2018-04-19T01:46:03.273Z,99.99
2018-04-19T01:47:03.256Z,99.99
2018-04-19T01:48:03.507Z,99.99
2018-04-19T01:49:03.227Z,99.99
2018-04-19T01:50:03.219Z,99.99
2018-04-19T01:51:03.468Z,99.99
2018-04-19T01:52:03.458Z,99.99
2018-04-19T01:53:03.178Z,99.99
2018-04-19T01:54:03.165Z,99.99
2018-04-19T01:55:03.423Z,99.99
2018-04-19T01:56:03.138Z,99.99
2018-04-19T01:57:03.126Z,99.99
2018-04-19T01:58:03.383Z,99.99
2018-04-19T01:59:03.095Z,99.99
2018-04-19T02:00:03.081Z,99.99
2018-04-19T02:01:03.070Z,99.99
2018-04-19T02:02:03.324Z,99.99
2018-04-19T02:03:03.046Z,99.99
2018-04-19T02:04:03.292Z,99.99
2018-04-19T02:05:03.017Z,99.99
2018-04-19T02:06:03.274Z,99.99
2018-04-19T02:07:02.990Z,99.99
2018-04-19T02:08:03.243Z,99.99
2018-04-19T02:09:03.229Z,99.99
2018-04-19T02:10:02.951Z,99.99
2018-04-19T02:11:03.204Z,99.99
2018-04-19T02:12:03.196Z,99.99
2018-04-19T02:13:02.913Z,99.99
2018-04-19T02:14:03.165Z,99.99
2018-04-19T02:15:03.162Z,99.99
2018-04-19T02:16:03.138Z,99.99
2018-04-19T02:17:02.860Z,99.99
2018-04-19T02:18:02.846Z,99.99
2018-04-19T02:19:02.831Z,99.99
2018-04-19T02:20:02.820Z,99.99
2018-04-19T02:21:03.077Z,99.99
2018-04-19T02:22:03.055Z,99.99
2018-04-19T02:23:03.094Z,99.99
2018-04-19T02:24:03.029Z,99.99
2018-04-19T02:25:02.765Z,99.99
2018-04-19T02:26:02.740Z,99.99
2018-04-19T02:27:02.992Z,99.99
2018-04-19T02:28:02.978Z,99.99
2018-04-19T02:29:02.966Z,99.99
2018-04-19T02:30:02.688Z,99.99
2018-04-19T02:31:02.972Z,99.99
2018-04-19T02:32:02.933Z,99.99
2018-04-19T02:33:02.653Z,99.99
2018-04-19T02:34:02.910Z,99.99
2018-04-19T02:35:02.887Z,99.99
2018-04-19T02:36:02.870Z,99.99
2018-04-19T02:37:03.109Z,99.99
2018-04-19T02:38:02.853Z,99.99
2018-04-19T02:39:02.572Z,99.99
2018-04-19T02:40:02.839Z,99.99
2018-04-19T02:41:02.812Z,99.99
2018-04-19T02:42:02.794Z,99.99
2018-04-19T02:43:03.083Z,99.99
2018-04-19T02:44:02.505Z,99.99
2018-04-19T02:45:02.757Z,99.99
2018-04-19T02:46:02.474Z,99.99
2018-04-19T02:47:02.724Z,99.99
2018-04-19T02:48:02.454Z,99.99
2018-04-19T02:49:02.644Z,99.99
2018-04-19T02:50:02.428Z,99.99
2018-04-19T02:51:02.404Z,99.99
2018-04-19T02:52:02.670Z,99.99
2018-04-19T02:53:02.392Z,99.99
2018-04-19T02:54:02.402Z,99.99
2018-04-19T02:55:02.625Z,99.99
2018-04-19T02:56:02.605Z,99.99
2018-04-19T02:57:02.324Z,99.99
2018-04-19T02:58:02.579Z,99.99
2018-04-19T02:59:02.298Z,99.99
2018-04-19T03:00:02.290Z,99.99
2018-04-19T03:01:02.279Z,99.99
2018-04-19T03:02:02.260Z,99.99
2018-04-19T03:03:02.511Z,99.99
2018-04-19T03:04:02.233Z,99.99
2018-04-19T03:05:02.225Z,99.99
2018-04-19T03:06:02.207Z,99.99
2018-04-19T03:07:02.209Z,99.99
2018-04-19T03:08:02.452Z,99.99
2018-04-19T03:09:02.162Z,99.99
2018-04-19T03:10:02.423Z,99.99
2018-04-19T03:11:02.439Z,99.99
2018-04-19T03:12:02.126Z,99.99
2018-04-19T03:13:02.383Z,99.99
2018-04-19T03:14:02.102Z,99.99
2018-04-19T03:15:02.079Z,99.99
2018-04-19T03:16:02.336Z,99.99
2018-04-19T03:17:02.331Z,99.99
2018-04-19T03:18:02.040Z,99.99
2018-04-19T03:19:02.025Z,99.99
2018-04-19T03:20:02.022Z,99.99
2018-04-19T03:21:02.007Z,99.99
2018-04-19T03:22:01.990Z,99.99
2018-04-19T03:23:02.238Z,99.99
2018-04-19T03:24:01.969Z,99.99
2018-04-19T03:25:01.949Z,99.99
2018-04-19T03:26:01.933Z,99.99
2018-04-19T03:27:02.182Z,99.99
2018-04-19T03:28:02.170Z,99.99
2018-04-19T03:29:01.894Z,99.99
2018-04-19T03:30:02.149Z,99.99
2018-04-19T03:31:02.140Z,99.99
2018-04-19T03:32:02.116Z,99.99
2018-04-19T03:33:01.838Z,99.99
2018-04-19T03:34:01.826Z,99.99
2018-04-19T03:35:01.811Z,99.99
2018-04-19T03:36:02.064Z,99.99
2018-04-19T03:37:01.784Z,99.99
2018-04-19T03:38:02.041Z,99.99
2018-04-19T03:39:02.020Z,99.99
2018-04-19T03:40:02.017Z,99.99
2018-04-19T03:41:01.989Z,99.99
2018-04-19T03:42:01.982Z,99.99
2018-04-19T03:43:01.697Z,99.99
2018-04-19T03:44:01.952Z,99.99
2018-04-19T03:45:01.673Z,99.99
2018-04-19T03:46:01.934Z,99.99
2018-04-19T03:47:01.645Z,99.99
2018-04-19T03:48:01.896Z,99.99
2018-04-19T03:49:01.620Z,99.99
2018-04-19T03:50:01.606Z,99.99
2018-04-19T03:51:01.853Z,99.99
2018-04-19T03:52:01.575Z,99.99
2018-04-19T03:53:01.559Z,99.99
2018-04-19T03:54:01.823Z,99.99
2018-04-19T03:55:01.533Z,99.99
2018-04-19T03:56:01.782Z,99.99
2018-04-19T03:57:01.772Z,99.99
2018-04-19T03:58:01.757Z,99.99
2018-04-19T03:59:01.479Z,99.99
2018-04-19T04:00:01.729Z,99.99
2018-04-19T04:01:01.801Z,99.99
2018-04-19T04:02:01.706Z,99.99
2018-04-19T04:03:01.428Z,99.99
2018-04-19T04:04:01.674Z,99.99
2018-04-19T04:05:01.666Z,99.99
2018-04-19T04:06:01.649Z,99.99
2018-04-19T04:07:01.642Z,99.99
2018-04-19T04:08:01.616Z,99.99
2018-04-19T04:09:01.610Z,99.99
2018-04-19T04:10:01.332Z,99.99
2018-04-19T04:11:01.316Z,99.99
2018-04-19T04:12:01.581Z,99.99
2018-04-19T04:13:01.287Z,99.99
2018-04-19T04:14:01.536Z,99.99
2018-04-19T04:15:01.530Z,99.99
2018-04-19T04:16:01.249Z,99.99
2018-04-19T04:17:01.491Z,99.99
2018-04-19T04:18:01.509Z,99.99
2018-04-19T04:19:01.201Z,99.99
2018-04-19T04:20:01.187Z,99.99
2018-04-19T04:21:01.437Z,99.99
2018-04-19T04:22:01.424Z,99.99
2018-04-19T04:23:01.417Z,99.99
2018-04-19T04:24:01.398Z,99.99
2018-04-19T04:25:01.381Z,99.99
2018-04-19T04:26:01.105Z,99.99
2018-04-19T04:27:01.359Z,99.99
2018-04-19T04:28:01.343Z,99.99
2018-04-19T04:29:01.328Z,99.99
2018-04-19T04:30:01.325Z,99.99
2018-04-19T04:31:01.328Z,99.99
2018-04-19T04:32:01.283Z,99.99
2018-04-19T04:33:01.270Z,99.99
2018-04-19T04:34:00.988Z,99.99
2018-04-19T04:35:01.241Z,99.99
2018-04-19T04:36:00.960Z,99.99
2018-04-19T04:37:01.148Z,99.99
2018-04-19T04:38:01.200Z,99.99
2018-04-19T04:39:01.187Z,99.99
2018-04-19T04:40:00.909Z,99.99
2018-04-19T04:41:01.160Z,99.99
2018-04-19T04:42:00.876Z,99.99
2018-04-19T04:43:00.867Z,99.99
2018-04-19T04:44:01.118Z,99.99
2018-04-19T04:45:01.115Z,99.99
2018-04-19T04:46:01.092Z,99.99
2018-04-19T04:47:01.073Z,99.99
2018-04-19T04:48:01.058Z,99.99
2018-04-19T04:49:00.781Z,99.99
2018-04-19T04:50:00.767Z,99.99
2018-04-19T04:51:01.010Z,99.99
2018-04-19T04:52:01.012Z,99.99
2018-04-19T04:53:00.721Z,99.99
2018-04-19T04:54:01.053Z,99.99
2018-04-19T04:55:00.958Z,99.99
2018-04-19T04:56:00.953Z,99.99
2018-04-19T04:57:00.664Z,99.99
2018-04-19T04:58:00.918Z,99.99
2018-04-19T04:59:00.638Z,99.99
2018-04-19T05:00:00.622Z,99.99
2018-04-19T05:01:00.608Z,99.99
2018-04-19T05:02:00.597Z,99.99
2018-04-19T05:03:00.846Z,99.99
2018-04-19T05:04:00.835Z,99.99
2018-04-19T05:05:00.553Z,99.99
2018-04-19T05:06:00.540Z,99.99
2018-04-19T05:07:00.525Z,99.99
2018-04-19T05:08:00.772Z,99.99
2018-04-19T05:09:00.492Z,99.99
2018-04-19T05:10:00.797Z,99.99
2018-04-19T05:11:00.462Z,99.99
2018-04-19T05:12:00.734Z,99.99
2018-04-19T05:13:00.711Z,99.99
2018-04-19T05:14:00.696Z,99.99
2018-04-19T05:15:00.676Z,99.99
2018-04-19T05:16:00.395Z,99.99
2018-04-19T05:17:00.380Z,99.99
2018-04-19T05:18:00.628Z,99.99
2018-04-19T05:19:00.353Z,99.99
2018-04-19T05:20:00.602Z,99.99
2018-04-19T05:21:00.332Z,99.99
2018-04-19T05:22:00.321Z,99.99
2018-04-19T05:23:00.297Z,99.99
2018-04-19T05:24:00.547Z,99.95
2018-04-19T05:25:00.263Z,99.99
2018-04-19T05:26:00.523Z,99.99
2018-04-19T05:27:00.240Z,99.95
2018-04-19T05:28:00.223Z,99.99
2018-04-19T05:29:00.474Z,99.99
2018-04-19T05:30:00.471Z,99.99
2018-04-19T05:31:00.449Z,99.99
2018-04-19T05:32:00.168Z,99.66
2018-04-19T05:33:00.423Z,99.66
2018-04-19T05:34:00.405Z,99.37
2018-04-19T05:35:00.124Z,98.42
2018-04-19T05:36:00.112Z,98.32
2018-04-19T05:37:00.363Z,97.75
2018-04-19T05:38:00.090Z,98.32
2018-04-19T05:39:00.333Z,96.7
2018-04-19T05:40:00.321Z,98.13
2018-04-19T05:41:00.312Z,97.85
2018-04-19T05:42:00.290Z,98.61
2018-04-19T05:43:00.015Z,97.56
2018-04-19T05:44:00.264Z,96.84
2018-04-19T05:44:59.985Z,98.08
2018-04-19T05:45:59.972Z,98.28
2018-04-19T05:47:00.228Z,98.66
2018-04-19T05:48:00.211Z,98.94
2018-04-19T05:49:00.197Z,99.14
2018-04-19T05:50:00.194Z,99.99
2018-04-19T05:50:59.903Z,99.99
2018-04-19T05:51:59.889Z,99.99
2018-04-19T05:52:59.883Z,99.99
2018-04-19T05:54:00.125Z,99.99
2018-04-19T05:54:59.859Z,99.99
2018-04-19T05:56:00.102Z,99.99
2018-04-19T05:57:00.090Z,99.99
2018-04-19T05:58:00.084Z,99.99
2018-04-19T05:59:00.059Z,99.99
2018-04-19T06:00:00.060Z,99.99
2018-04-19T06:00:59.763Z,99.99
2018-04-19T06:02:00.023Z,99.99
2018-04-19T06:03:00.003Z,99.99
2018-04-19T06:03:59.727Z,99.99
2018-04-19T06:04:59.976Z,99.99
2018-04-19T06:05:59.966Z,99.99
2018-04-19T06:06:59.953Z,99.99
2018-04-19T06:07:59.933Z,99.99
2018-04-19T06:08:59.921Z,99.99
2018-04-19T06:09:59.920Z,99.99
2018-04-19T06:10:59.890Z,99.99
2018-04-19T06:11:59.624Z,99.99
2018-04-19T06:12:59.875Z,99.99
2018-04-19T06:13:59.858Z,99.99
2018-04-19T06:14:59.586Z,99.99
2018-04-19T06:15:59.559Z,99.99
2018-04-19T06:16:59.554Z,99.99
2018-04-19T06:17:59.539Z,99.99
2018-04-19T06:18:59.835Z,99.99
2018-04-19T06:19:59.781Z,99.99
2018-04-19T06:20:59.494Z,99.99
2018-04-19T06:21:59.748Z,99.99
2018-04-19T06:22:59.731Z,99.99
2018-04-19T06:23:59.726Z,99.99
2018-04-19T06:24:59.893Z,99.99
2018-04-19T06:25:59.696Z,99.99
2018-04-19T06:26:59.681Z,99.99
2018-04-19T06:27:59.678Z,99.99
2018-04-19T06:28:59.657Z,99.99
2018-04-19T06:29:59.383Z,99.99
2018-04-19T06:30:59.363Z,99.99
2018-04-19T06:31:59.614Z,99.99
2018-04-19T06:32:59.605Z,99.99
2018-04-19T06:33:59.328Z,99.99
2018-04-19T06:34:59.581Z,99.99
2018-04-19T06:35:59.715Z,99.99
2018-04-19T06:36:59.490Z,99.99
2018-04-19T06:37:59.274Z,99.99
2018-04-19T06:38:59.527Z,99.99
2018-04-19T06:39:59.516Z,99.99
2018-04-19T06:40:59.234Z,99.99
2018-04-19T06:41:59.490Z,99.99
2018-04-19T06:42:59.211Z,99.99
2018-04-19T06:43:59.461Z,99.99
2018-04-19T06:44:59.453Z,99.99
2018-04-19T06:45:59.171Z,99.99
2018-04-19T06:46:59.165Z,99.99
2018-04-19T06:47:59.412Z,99.99
2018-04-19T06:48:59.398Z,99.99
2018-04-19T06:49:59.123Z,99.99
2018-04-19T06:50:59.111Z,99.99
2018-04-19T06:51:59.363Z,99.99
2018-04-19T06:52:59.090Z,99.99
2018-04-19T06:53:59.074Z,99.99
2018-04-19T06:54:59.062Z,99.99
2018-04-19T06:55:59.318Z,99.99
2018-04-19T06:56:59.302Z,99.99
2018-04-19T06:57:59.028Z,99.99
2018-04-19T06:58:59.020Z,99.99
2018-04-19T06:59:59.000Z,99.99
2018-04-19T07:00:59.010Z,99.99
2018-04-19T07:01:58.981Z,99.99
2018-04-19T07:02:58.965Z,99.99
2018-04-19T07:03:58.956Z,99.99
2018-04-19T07:04:59.207Z,99.99
2018-04-19T07:05:59.194Z,99.99
2018-04-19T07:06:59.190Z,99.99
2018-04-19T07:07:58.905Z,99.99
2018-04-19T07:08:59.158Z,99.99
2018-04-19T07:09:59.146Z,99.99
2018-04-19T07:10:58.875Z,99.99
2018-04-19T07:11:58.861Z,99.99
2018-04-19T07:12:59.114Z,99.99
2018-04-19T07:13:59.104Z,99.99
2018-04-19T07:14:59.094Z,99.99
2018-04-19T07:15:59.084Z,99.99
2018-04-19T07:16:58.813Z,99.99
2018-04-19T07:17:59.060Z,99.99
2018-04-19T07:18:59.046Z,99.99
2018-04-19T07:19:59.040Z,99.99
2018-04-19T07:20:59.029Z,99.99
2018-04-19T07:21:58.750Z,99.99
2018-04-19T07:22:59.008Z,99.99
2018-04-19T07:23:58.992Z,99.99
2018-04-19T07:24:58.984Z,99.88
2018-04-19T07:25:58.703Z,98.63
2018-04-19T07:26:58.693Z,99.11
2018-04-19T07:27:58.682Z,99.11
2018-04-19T07:28:58.940Z,99.26
2018-04-19T07:29:58.661Z,98.29
2018-04-19T07:30:58.924Z,95.89
2018-04-19T07:31:58.636Z,96.85
2018-04-19T07:32:58.633Z,94.73
2018-04-19T07:33:58.886Z,95.79
2018-04-19T07:34:58.878Z,98.19
2018-04-19T07:35:58.597Z,99.16
2018-04-19T07:36:58.902Z,99.99
2018-04-19T07:37:58.844Z,99.99
2018-04-19T07:38:58.600Z,99.99
2018-04-19T07:39:58.556Z,99.99
2018-04-19T07:40:58.858Z,97.81
2018-04-19T07:41:58.536Z,98.68
2018-04-19T07:42:58.526Z,96.22
2018-04-19T07:43:58.800Z,95.17
2018-04-19T07:44:58.508Z,97.57
2018-04-19T07:45:58.783Z,96.12
2018-04-19T07:46:58.752Z,95.94
2018-04-19T07:47:58.481Z,93.43
2018-04-19T07:48:58.744Z,88.85
2018-04-19T07:49:58.725Z,87.32
2018-04-19T07:50:58.714Z,85.97
2018-04-19T07:51:58.437Z,86.55
2018-04-19T07:52:58.429Z,84.81
2018-04-19T07:53:58.689Z,85.53
2018-04-19T07:54:58.415Z,85.34
2018-04-19T07:55:58.675Z,83.8
2018-04-19T07:56:58.660Z,81.58
2018-04-19T07:57:58.693Z,80.62
2018-04-19T07:58:58.638Z,78.44
2018-04-19T07:59:58.628Z,77.96
2018-04-19T08:00:58.355Z,78.44
2018-04-19T08:01:58.344Z,80.76
2018-04-19T08:02:58.605Z,84.9
2018-04-19T08:03:58.333Z,83.64
2018-04-19T08:04:58.316Z,85.09
2018-04-19T08:05:58.580Z,83.16
2018-04-19T08:06:58.568Z,83.74
2018-04-19T08:07:58.558Z,84.42
2018-04-19T08:08:58.548Z,84.42
2018-04-19T08:09:58.548Z,83.26
2018-04-19T08:10:58.265Z,83.45
2018-04-19T08:11:58.524Z,82.29
2018-04-19T08:12:58.513Z,82.49
2018-04-19T08:13:58.511Z,79.74
2018-04-19T08:14:58.497Z,76.88
2018-04-19T08:15:58.221Z,74.35
2018-04-19T08:16:58.486Z,69.75
2018-04-19T08:17:58.476Z,66.66
2018-04-19T08:18:58.202Z,64.5
2018-04-19T08:19:58.460Z,61.61
2018-04-19T08:20:58.189Z,60.58
2018-04-19T08:21:58.185Z,59.74
2018-04-19T08:22:58.446Z,60.71
2018-04-19T08:23:58.438Z,60.77
2018-04-19T08:24:58.438Z,59.61
2018-04-19T08:25:58.161Z,59.31
2018-04-19T08:26:58.156Z,58.8
2018-04-19T08:27:58.419Z,59.51
2018-04-19T08:28:58.413Z,59.25
2018-04-19T08:29:58.410Z,57.31
2018-04-19T08:30:58.405Z,57.14
2018-04-19T08:31:58.398Z,56.1
2018-04-19T08:32:58.437Z,54.01
2018-04-19T08:33:58.127Z,52.67
2018-04-19T08:34:58.393Z,54.11
2018-04-19T08:35:58.382Z,56.61
2018-04-19T08:36:58.586Z,56.71
2018-04-19T08:37:58.381Z,55.86
2018-04-19T08:38:58.109Z,55.91
2018-04-19T08:39:58.370Z,54.94
2018-04-19T08:40:58.100Z,56.14
2018-04-19T08:41:58.365Z,56.11
2018-04-19T08:42:58.092Z,53.67
2018-04-19T08:43:58.096Z,52.22
2018-04-19T08:44:58.358Z,52.63
2018-04-19T08:45:58.357Z,50.43
2018-04-19T08:46:58.085Z,50.16
2018-04-19T08:47:58.085Z,51.46
2018-04-19T08:48:58.351Z,49.71
2018-04-19T08:49:58.344Z,50.36
2018-04-19T08:50:58.343Z,51.02
2018-04-19T08:51:58.345Z,52.53
2018-04-19T08:52:58.337Z,51.75
2018-04-19T08:53:58.338Z,52.14
2018-04-19T08:54:58.334Z,53.21
2018-04-19T08:55:58.333Z,54.48
2018-04-19T08:56:58.064Z,52.63
2018-04-19T08:57:58.062Z,53.99
2018-04-19T08:58:58.061Z,51.53
2018-04-19T08:59:58.326Z,50.02
2018-04-19T09:00:58.320Z,50.65
2018-04-19T09:01:58.319Z,51.77
2018-04-19T09:02:58.050Z,52.62
2018-04-19T09:03:58.051Z,53.47
2018-04-19T09:04:58.313Z,54.14
2018-04-19T09:05:58.307Z,54.63
2018-04-19T09:06:58.306Z,52.3
2018-04-19T09:07:58.367Z,53.66
2018-04-19T09:08:58.044Z,53.95
2018-04-19T09:09:58.037Z,53.88
2018-04-19T09:10:58.031Z,52.06
2018-04-19T09:11:58.032Z,49.85
2018-04-19T09:12:58.029Z,47.25
2018-04-19T09:13:58.291Z,47.81
2018-04-19T09:14:58.020Z,49.46
2018-04-19T09:15:58.022Z,51.11
2018-04-19T09:16:58.022Z,51.28
2018-04-19T09:17:58.022Z,51.7
2018-04-19T09:18:58.281Z,51.18
2018-04-19T09:19:58.286Z,49.92
2018-04-19T09:20:58.015Z,51.26
2018-04-19T09:21:58.283Z,51.26
2018-04-19T09:22:58.082Z,51.55
2018-04-19T09:23:58.271Z,51.65
2018-04-19T09:24:58.271Z,52.13
2018-04-19T09:25:58.270Z,51.18
2018-04-19T09:26:58.007Z,50.92
2018-04-19T09:27:58.269Z,51.4
2018-04-19T09:28:58.268Z,52.37
2018-04-19T09:29:58.003Z,49.97
2018-04-19T09:30:58.267Z,50.68
2018-04-19T09:31:58.275Z,49.34
2018-04-19T09:32:57.997Z,49.07
2018-04-19T09:33:57.996Z,48.32
2018-04-19T09:34:58.258Z,47.25
2018-04-19T09:35:57.997Z,46.37
2018-04-19T09:36:58.000Z,46.64
2018-04-19T09:37:58.257Z,48.07
2018-04-19T09:38:57.991Z,48.27
2018-04-19T09:39:58.253Z,48.56
2018-04-19T09:40:58.336Z,49.24
2018-04-19T09:41:57.992Z,48.44
2018-04-19T09:42:58.258Z,48.25
2018-04-19T09:43:57.987Z,51.75
2018-04-19T09:44:57.989Z,49.8
2018-04-19T09:45:57.983Z,50.36
2018-04-19T09:46:57.984Z,50.95
2018-04-19T09:47:58.297Z,51.4
2018-04-19T09:48:58.245Z,49.66
2018-04-19T09:49:58.239Z,49.46
2018-04-19T09:50:58.238Z,49.95
2018-04-19T09:51:58.014Z,49.87
2018-04-19T09:52:58.233Z,48.71
2018-04-19T09:53:58.045Z,51.43
2018-04-19T09:54:58.232Z,50.07
2018-04-19T09:55:58.229Z,49.29
2018-04-19T09:56:58.227Z,50.34
2018-04-19T09:57:58.226Z,51.21
2018-04-19T09:58:57.953Z,52.37
2018-04-19T09:59:57.955Z,51.82
2018-04-19T10:00:57.955Z,50.56
2018-04-19T10:01:58.222Z,50.26
2018-04-19T10:02:58.210Z,51.23
2018-04-19T10:03:58.212Z,50.68
2018-04-19T10:04:58.209Z,50.09
2018-04-19T10:05:58.142Z,49.99
2018-04-19T10:06:58.244Z,51.29
2018-04-19T10:07:57.940Z,52.06
2018-04-19T10:08:58.203Z,50.29
2018-04-19T10:09:58.204Z,50.31
2018-04-19T10:10:58.241Z,49.8
2018-04-19T10:11:58.192Z,51.65
2018-04-19T10:12:57.923Z,51.36
2018-04-19T10:13:57.923Z,51.45
2018-04-19T10:14:58.197Z,50.26
2018-04-19T10:15:57.990Z,51.43
2018-04-19T10:16:57.926Z,51.92
2018-04-19T10:17:57.916Z,54.83
2018-04-19T10:18:57.910Z,51.82
2018-04-19T10:19:58.180Z,50.65
2018-04-19T10:20:58.176Z,51.23
2018-04-19T10:21:57.909Z,52.89
2018-04-19T10:22:57.905Z,53.18
2018-04-19T10:23:58.171Z,51.14
2018-04-19T10:24:58.187Z,50.38
2018-04-19T10:25:58.166Z,52.79
2018-04-19T10:26:57.900Z,50.58
2018-04-19T10:27:58.164Z,49.71
2018-04-19T10:28:57.900Z,49.63
2018-04-19T10:29:58.163Z,48.85
2018-04-19T10:30:58.149Z,49.73
2018-04-19T10:31:58.147Z,48.95
2018-04-19T10:32:57.888Z,48.66
2018-04-19T10:33:57.881Z,49.12
2018-04-19T10:34:57.880Z,49.9
2018-04-19T10:35:58.141Z,50.04
2018-04-19T10:36:58.344Z,49
2018-04-19T10:37:57.877Z,50.68
2018-04-19T10:38:58.141Z,48.95
2018-04-19T10:39:57.871Z,47.19
2018-04-19T10:40:57.868Z,47.29
2018-04-19T10:41:58.147Z,47.12
2018-04-19T10:42:58.135Z,47.61
2018-04-19T10:43:58.128Z,47.41
2018-04-19T10:44:57.867Z,48.78
2018-04-19T10:45:58.125Z,47.83
2018-04-19T10:46:57.865Z,48.61
2018-04-19T10:47:58.126Z,46.68
2018-04-19T10:48:57.860Z,45.82
2018-04-19T10:49:58.125Z,47.58
2018-04-19T10:50:57.865Z,47.11
2018-04-19T10:51:58.127Z,46.92
2018-04-19T10:52:57.859Z,45.06
2018-04-19T10:53:58.123Z,47.19
2018-04-19T10:54:57.877Z,49.22
2018-04-19T10:55:58.124Z,47.66
2018-04-19T10:56:57.865Z,46.21
2018-04-19T10:57:57.859Z,49
2018-04-19T10:58:57.867Z,45.78
2018-04-19T10:59:58.134Z,46.24
2018-04-19T11:00:57.877Z,47.83
2018-04-19T11:01:57.869Z,49.12
2018-04-19T11:02:58.137Z,47.38
2018-04-19T11:03:57.871Z,46.04
2018-04-19T11:04:57.875Z,47.99
2018-04-19T11:05:58.139Z,45.37
2018-04-19T11:06:58.141Z,44.13
2018-04-19T11:07:58.144Z,42.46
2018-04-19T11:08:58.148Z,42.48
2018-04-19T11:09:57.889Z,44.66
2018-04-19T11:10:57.895Z,45.17
2018-04-19T11:11:57.896Z,41.17
2018-04-19T11:12:58.214Z,42.57
2018-04-19T11:13:57.916Z,43.45
2018-04-19T11:14:57.912Z,44.8
2018-04-19T11:15:58.236Z,44.73
2018-04-19T11:16:58.189Z,41.58
2018-04-19T11:17:57.939Z,41.56
2018-04-19T11:18:57.932Z,42.35
2018-04-19T11:19:58.207Z,39.53
2018-04-19T11:20:58.210Z,39.74
2018-04-19T11:21:57.955Z,41.39
2018-04-19T11:22:58.227Z,41.49
2018-04-19T11:23:58.235Z,40.63
2018-04-19T11:24:57.974Z,38.29
2018-04-19T11:25:57.981Z,39.07
2018-04-19T11:26:57.990Z,40.03
2018-04-19T11:27:58.269Z,39.56
2018-04-19T11:28:58.278Z,42.53
2018-04-19T11:29:58.278Z,39.4
2018-04-19T11:30:58.353Z,41.27
2018-04-19T11:31:58.300Z,39.05
2018-04-19T11:32:58.046Z,38.48
2018-04-19T11:33:58.310Z,36.9
2018-04-19T11:34:58.318Z,36.8
2018-04-19T11:35:58.325Z,38.58
2018-04-19T11:36:58.070Z,39.37
2018-04-19T11:37:58.347Z,38.62
2018-04-19T11:38:58.091Z,37.26
2018-04-19T11:39:58.103Z,38.24
2018-04-19T11:40:58.108Z,40.51
2018-04-19T11:41:58.379Z,41.2
2018-04-19T11:42:58.395Z,36.98
2018-04-19T11:43:58.134Z,39.44
2018-04-19T11:44:58.149Z,37.59
2018-04-19T11:45:58.158Z,34.23
2018-04-19T11:46:58.434Z,33.04
2018-04-19T11:47:58.491Z,35.2
2018-04-19T11:48:58.448Z,37.27
2018-04-19T11:49:58.462Z,37.07
2018-04-19T11:50:58.485Z,35.71
2018-04-19T11:51:58.213Z,36.99
2018-04-19T11:52:58.223Z,33.04
2018-04-19T11:53:58.505Z,35.12
2018-04-19T11:54:58.512Z,36.78
2018-04-19T11:55:58.257Z,33.15
2018-04-19T11:56:58.267Z,34.43
2018-04-19T11:57:58.279Z,34.01
2018-04-19T11:58:58.555Z,36.27
2018-04-19T11:59:58.568Z,39.31
2018-04-19T12:00:58.326Z,38.85
2018-04-19T12:01:58.602Z,38.56
2018-04-19T12:02:58.612Z,36.78
2018-04-19T12:03:58.613Z,37.49
2018-04-19T12:04:58.362Z,37.21
2018-04-19T12:05:58.366Z,37.21
2018-04-19T12:06:58.377Z,37.32
2018-04-19T12:07:58.662Z,33.29
2018-04-19T12:08:58.662Z,37.54
2018-04-19T12:09:58.410Z,35.68
2018-04-19T12:10:58.686Z,36.79
2018-04-19T12:11:58.699Z,35.22
2018-04-19T12:12:58.709Z,33.95
2018-04-19T12:13:58.720Z,34.74
2018-04-19T12:14:58.463Z,35.14
2018-04-19T12:15:58.476Z,36.62
2018-04-19T12:16:58.746Z,35.25
2018-04-19T12:17:58.761Z,35.55
2018-04-19T12:18:58.801Z,33.16
2018-04-19T12:19:58.519Z,33.85
2018-04-19T12:20:58.531Z,36.92
2018-04-19T12:21:58.803Z,32.67
2018-04-19T12:22:58.552Z,31.76
2018-04-19T12:23:58.559Z,34.81
2018-04-19T12:24:58.572Z,33.62
2018-04-19T12:25:58.857Z,34.03
2018-04-19T12:26:58.595Z,35.02
2018-04-19T12:27:58.605Z,37.6
2018-04-19T12:28:58.881Z,36.52
2018-04-19T12:29:58.626Z,34.95
2018-04-19T12:30:58.912Z,34.58
2018-04-19T12:31:58.915Z,32.61
2018-04-19T12:32:58.926Z,35.86
2018-04-19T12:33:58.674Z,33.47
2018-04-19T12:34:58.687Z,35.85
2018-04-19T12:35:58.693Z,33.97
2018-04-19T12:36:58.707Z,35.86
2018-04-19T12:37:58.985Z,34.38
2018-04-19T12:38:58.725Z,37.57
2018-04-19T12:40:00.842Z,33.49
2018-04-19T12:40:59.022Z,35.58
2018-04-19T12:41:59.028Z,33.7
2018-04-19T12:42:59.042Z,32.53
2018-04-19T12:43:59.044Z,33.11
2018-04-19T12:44:59.063Z,33.69
2018-04-19T12:45:58.805Z,32.3
2018-04-19T12:46:59.083Z,31.71
2018-04-19T12:47:58.826Z,32.21
2018-04-19T12:48:58.836Z,33.21
2018-04-19T12:49:58.848Z,33.21
2018-04-19T12:50:59.124Z,32.91
2018-04-19T12:51:59.137Z,32.71
2018-04-19T12:52:58.882Z,34.1